createdAt,value
2023-02-19T00:01:40.581Z,64.09
2023-02-19T00:03:44.190Z,64.53
2023-02-19T00:05:46.223Z,64.53
2023-02-19T00:07:48.611Z,64.66
2023-02-19T00:09:50.552Z,64.68
2023-02-19T00:11:52.472Z,65.50
2023-02-19T00:13:56.114Z,64.98
2023-02-19T00:15:58.513Z,64.77
2023-02-19T00:18:00.619Z,64.72
2023-02-19T00:20:02.708Z,64.51
2023-02-19T00:22:06.368Z,64.20
2023-02-19T00:24:10.774Z,64.65
2023-02-19T00:26:18.527Z,64.41
2023-02-19T00:28:21.092Z,64.87
2023-02-19T00:30:23.058Z,64.50
2023-02-19T00:32:25.090Z,64.41
2023-02-19T00:34:27.201Z,65.22
2023-02-19T00:36:30.692Z,65.22
2023-02-19T00:38:39.014Z,65.05
2023-02-19T00:40:40.932Z,65.34
2023-02-19T00:42:44.860Z,65.52
2023-02-19T00:44:49.097Z,65.62
2023-02-19T00:46:51.036Z,65.55
2023-02-19T00:48:53.613Z,65.30
2023-02-19T00:50:55.471Z,65.40
2023-02-19T00:52:57.402Z,65.43
2023-02-19T00:55:01.695Z,65.84
2023-02-19T00:57:03.766Z,65.45
2023-02-19T00:59:05.935Z,65.40
2023-02-19T01:01:09.153Z,64.98
2023-02-19T01:03:11.400Z,65.74
2023-02-19T01:05:13.334Z,65.81
2023-02-19T01:07:15.430Z,65.42
2023-02-19T01:09:17.440Z,65.70
2023-02-19T01:11:20.648Z,64.88
2023-02-19T01:13:22.680Z,65.36
2023-02-19T01:15:24.601Z,65.10
2023-02-19T01:17:26.556Z,65.39
2023-02-19T01:19:28.592Z,65.17
2023-02-19T01:21:31.192Z,65.55
2023-02-19T01:23:33.467Z,65.44
2023-02-19T01:25:38.530Z,64.92
2023-02-19T01:27:40.574Z,65.00
2023-02-19T01:29:43.630Z,64.79
2023-02-19T01:31:45.776Z,64.64
2023-02-19T01:33:49.537Z,64.39
2023-02-19T01:35:51.455Z,65.06
2023-02-19T01:37:53.376Z,64.86
2023-02-19T01:39:55.466Z,65.17
2023-02-19T01:41:58.691Z,64.24
2023-02-19T01:44:04.145Z,64.69
2023-02-19T01:46:06.215Z,65.07
2023-02-19T01:48:11.347Z,65.23
2023-02-19T01:50:13.392Z,65.53
2023-02-19T01:52:23.132Z,65.14
2023-02-19T01:54:29.109Z,64.97
2023-02-19T01:56:34.723Z,64.62
2023-02-19T01:58:38.157Z,64.55
2023-02-19T02:00:40.240Z,65.01
2023-02-19T02:02:45.237Z,64.55
2023-02-19T02:04:47.547Z,64.81
2023-02-19T02:06:51.211Z,64.90
2023-02-19T02:08:59.817Z,64.67
2023-02-19T02:11:04.845Z,64.79
2023-02-19T02:13:06.904Z,65.15
2023-02-19T02:15:09.849Z,64.67
2023-02-19T02:17:15.164Z,65.28
2023-02-19T02:19:20.540Z,64.93
2023-02-19T02:21:25.895Z,64.96
2023-02-19T02:23:31.146Z,64.90
2023-02-19T02:25:37.520Z,64.89
2023-02-19T02:27:43.757Z,64.81
2023-02-19T02:29:56.191Z,65.08
2023-02-19T02:32:02.878Z,64.75
2023-02-19T02:34:12.398Z,64.96
2023-02-19T02:36:24.252Z,64.61
2023-02-19T02:38:29.926Z,64.53
2023-02-19T02:40:31.894Z,65.00
2023-02-19T02:42:35.032Z,64.80
2023-02-19T02:44:37.868Z,64.43
2023-02-19T02:46:47.530Z,64.01
2023-02-19T02:48:55.469Z,64.30
2023-02-19T02:51:05.404Z,64.49
2023-02-19T02:53:19.017Z,64.28
2023-02-19T02:55:21.537Z,64.08
2023-02-19T02:57:24.250Z,64.34
2023-02-19T02:59:29.590Z,64.47
2023-02-19T03:01:39.945Z,64.25
2023-02-19T03:03:47.365Z,63.91
2023-02-19T03:05:52.808Z,63.59
2023-02-19T03:08:04.446Z,63.94
2023-02-19T03:10:10.571Z,63.44
2023-02-19T03:12:18.780Z,63.57
2023-02-19T03:14:33.081Z,63.82
2023-02-19T03:16:43.005Z,63.79
2023-02-19T03:18:52.740Z,63.14
2023-02-19T03:20:58.224Z,63.66
2023-02-19T03:23:02.214Z,63.96
2023-02-19T03:25:12.428Z,63.57
2023-02-19T03:27:17.011Z,63.10
2023-02-19T03:29:22.118Z,62.88
2023-02-19T03:31:27.655Z,62.54
2023-02-19T03:33:30.597Z,62.95
2023-02-19T03:35:38.277Z,62.64
2023-02-19T03:37:48.337Z,62.14
2023-02-19T03:39:50.466Z,61.84
2023-02-19T03:41:55.805Z,62.40
2023-02-19T03:44:08.617Z,62.04
2023-02-19T03:46:23.403Z,61.97
2023-02-19T03:48:26.996Z,62.28
2023-02-19T03:50:37.562Z,61.78
2023-02-19T03:52:47.292Z,61.83
2023-02-19T03:54:57.834Z,61.85
2023-02-19T03:57:05.798Z,61.80
2023-02-19T03:59:14.463Z,61.79
2023-02-19T04:01:22.838Z,61.98
2023-02-19T04:03:37.101Z,61.73
2023-02-19T04:05:45.706Z,61.70
2023-02-19T04:07:50.885Z,62.05
2023-02-19T04:09:54.367Z,62.06
2023-02-19T04:11:57.059Z,61.93
2023-02-19T04:14:06.694Z,62.17
2023-02-19T04:16:13.158Z,61.65
2023-02-19T04:18:21.785Z,61.23
2023-02-19T04:20:28.218Z,61.55
2023-02-19T04:22:31.278Z,61.09
2023-02-19T04:24:40.632Z,60.99
2023-02-19T04:26:43.323Z,60.48
2023-02-19T04:28:45.094Z,59.86
2023-02-19T04:30:47.301Z,60.33
2023-02-19T04:32:49.186Z,59.58
2023-02-19T04:34:52.284Z,59.44
2023-02-19T04:36:55.900Z,59.20
2023-02-19T04:38:57.918Z,58.62
2023-02-19T04:40:59.686Z,58.57
2023-02-19T04:43:01.508Z,59.06
2023-02-19T04:45:03.477Z,58.98
2023-02-19T04:47:05.537Z,58.88
2023-02-19T04:49:07.594Z,58.19
2023-02-19T04:51:10.651Z,58.72
2023-02-19T04:53:12.791Z,59.21
2023-02-19T04:55:14.567Z,59.34
2023-02-19T04:57:16.367Z,59.30
2023-02-19T04:59:18.238Z,58.76
2023-02-19T05:01:20.533Z,59.03
2023-02-19T05:03:22.350Z,59.30
2023-02-19T05:05:24.166Z,59.31
2023-02-19T05:07:26.021Z,59.07
2023-02-19T05:09:27.879Z,59.27
2023-02-19T05:11:29.682Z,58.88
2023-02-19T05:13:31.785Z,59.49
2023-02-19T05:15:33.698Z,59.41
2023-02-19T05:17:35.756Z,59.01
2023-02-19T05:19:37.590Z,58.68
2023-02-19T05:21:40.656Z,58.67
2023-02-19T05:23:42.937Z,59.14
2023-02-19T05:25:45.036Z,59.04
2023-02-19T05:27:46.843Z,59.04
2023-02-19T05:29:48.602Z,58.88
2023-02-19T05:31:52.505Z,58.96
2023-02-19T05:33:56.263Z,59.20
2023-02-19T05:36:04.618Z,59.62
2023-02-19T05:38:08.176Z,59.78
2023-02-19T05:40:10.393Z,59.25
2023-02-19T05:42:15.037Z,59.20
2023-02-19T05:44:16.899Z,59.54
2023-02-19T05:46:21.214Z,59.07
2023-02-19T05:48:22.981Z,58.79
2023-02-19T05:50:25.305Z,58.90
2023-02-19T05:52:27.103Z,59.37
2023-02-19T05:54:29.781Z,58.90
2023-02-19T05:56:36.166Z,58.98
2023-02-19T05:58:37.926Z,58.80
2023-02-19T06:00:41.786Z,58.55
2023-02-19T06:02:44.319Z,59.15
2023-02-19T06:04:48.394Z,59.03
2023-02-19T06:06:52.309Z,58.72
2023-02-19T06:08:57.531Z,59.40
2023-02-19T06:11:01.722Z,58.71
2023-02-19T06:13:03.457Z,59.03
2023-02-19T06:15:06.862Z,59.03
2023-02-19T06:17:08.705Z,58.83
2023-02-19T06:19:10.832Z,59.11
2023-02-19T06:21:13.390Z,58.99
2023-02-19T06:23:15.718Z,58.79
2023-02-19T06:25:18.050Z,58.62
2023-02-19T06:27:19.877Z,58.25
2023-02-19T06:29:21.724Z,58.33
2023-02-19T06:31:25.974Z,58.30
2023-02-19T06:33:28.539Z,58.59
2023-02-19T06:35:30.295Z,58.03
2023-02-19T06:37:34.212Z,58.35
2023-02-19T06:39:36.314Z,58.48
2023-02-19T06:41:38.056Z,57.86
2023-02-19T06:43:40.137Z,58.74
2023-02-19T06:45:44.062Z,58.00
2023-02-19T06:47:45.915Z,58.55
2023-02-19T06:49:47.727Z,58.45
2023-02-19T06:51:49.637Z,58.59
2023-02-19T06:53:51.507Z,58.62
2023-02-19T06:55:57.419Z,58.44
2023-02-19T06:57:59.194Z,58.50
2023-02-19T07:00:04.808Z,58.38
2023-02-19T07:02:07.210Z,59.00
2023-02-19T07:04:09.888Z,58.33
2023-02-19T07:06:11.796Z,58.84
2023-02-19T07:08:13.693Z,58.94
2023-02-19T07:10:16.124Z,58.16
2023-02-19T07:12:20.913Z,58.05
2023-02-19T07:14:22.853Z,58.50
2023-02-19T07:16:25.394Z,58.40
2023-02-19T07:18:27.260Z,58.24
2023-02-19T07:20:31.368Z,58.51
2023-02-19T07:22:33.110Z,58.33
2023-02-19T07:24:37.091Z,58.87
2023-02-19T07:26:38.876Z,58.54
2023-02-19T07:28:42.160Z,58.59
2023-02-19T07:30:43.994Z,57.89
2023-02-19T07:32:45.821Z,57.74
2023-02-19T07:34:49.957Z,57.92
2023-02-19T07:36:51.783Z,57.90
2023-02-19T07:38:55.543Z,58.26
2023-02-19T07:40:59.998Z,57.90
2023-02-19T07:43:01.788Z,57.95
2023-02-19T07:45:03.825Z,57.46
2023-02-19T07:47:05.660Z,57.60
2023-02-19T07:49:07.481Z,58.04
2023-02-19T07:51:14.012Z,57.65
2023-02-19T07:53:16.062Z,58.10
2023-02-19T07:55:17.885Z,57.74
2023-02-19T07:57:19.829Z,57.84
2023-02-19T07:59:24.170Z,57.76
2023-02-19T08:01:34.795Z,57.33
2023-02-19T08:03:37.908Z,57.38
2023-02-19T08:05:45.001Z,56.95
2023-02-19T08:07:46.838Z,57.44
2023-02-19T08:10:08.514Z,57.13
2023-02-19T08:12:14.944Z,57.48
2023-02-19T08:14:16.735Z,57.52
2023-02-19T08:16:29.641Z,57.08
2023-02-19T08:18:35.641Z,57.24
2023-02-19T08:20:37.916Z,57.61
2023-02-19T08:22:39.741Z,57.48
2023-02-19T08:24:43.045Z,57.18
2023-02-19T08:26:46.909Z,57.54
2023-02-19T08:28:49.139Z,57.62
2023-02-19T08:30:51.781Z,57.39
2023-02-19T08:32:54.199Z,57.26
2023-02-19T08:34:55.975Z,57.55
2023-02-19T08:36:57.826Z,57.82
2023-02-19T08:38:59.811Z,57.99
2023-02-19T08:41:06.123Z,57.46
2023-02-19T08:43:12.174Z,57.75
2023-02-19T08:45:14.069Z,57.33
2023-02-19T08:47:15.851Z,57.27
2023-02-19T08:49:17.682Z,57.79
2023-02-19T08:51:19.498Z,57.52
2023-02-19T08:53:23.732Z,57.58
2023-02-19T08:55:25.643Z,57.54
2023-02-19T08:57:32.141Z,57.03
2023-02-19T08:59:34.076Z,56.99
2023-02-19T09:01:36.049Z,56.63
2023-02-19T09:03:37.868Z,56.48
2023-02-19T09:05:39.850Z,56.33
2023-02-19T09:07:42.187Z,56.48
2023-02-19T09:09:43.995Z,56.18
2023-02-19T09:11:47.838Z,56.17
2023-02-19T09:13:52.915Z,55.58
2023-02-19T09:15:57.198Z,55.48
2023-02-19T09:17:59.805Z,55.72
2023-02-19T09:20:01.697Z,56.13
2023-02-19T09:22:05.090Z,55.80
2023-02-19T09:24:09.154Z,55.35
2023-02-19T09:26:11.528Z,55.72
2023-02-19T09:28:14.454Z,54.89
2023-02-19T09:30:16.535Z,55.49
2023-02-19T09:32:19.311Z,54.86
2023-02-19T09:34:21.570Z,55.43
2023-02-19T09:36:23.517Z,54.90
2023-02-19T09:38:25.400Z,54.62
2023-02-19T09:40:30.206Z,54.03
2023-02-19T09:42:33.592Z,53.83
2023-02-19T09:44:39.336Z,53.22
2023-02-19T09:46:45.942Z,53.24
2023-02-19T09:48:47.995Z,52.79
2023-02-19T09:50:50.650Z,52.99
2023-02-19T09:52:57.229Z,52.87
2023-02-19T09:55:04.791Z,52.16
2023-02-19T09:57:14.997Z,52.44
2023-02-19T09:59:23.931Z,51.89
2023-02-19T10:01:32.357Z,50.77
2023-02-19T10:03:41.569Z,50.87
2023-02-19T10:05:43.981Z,50.72
2023-02-19T10:07:49.657Z,51.42
2023-02-19T10:09:57.677Z,51.30
2023-02-19T10:12:00.646Z,51.00
2023-02-19T10:14:09.531Z,50.92
2023-02-19T10:16:17.639Z,50.78
2023-02-19T10:18:23.825Z,50.28
2023-02-19T10:20:28.231Z,50.19
2023-02-19T10:22:32.122Z,49.73
2023-02-19T10:24:34.057Z,49.57
2023-02-19T10:26:36.932Z,49.71
2023-02-19T10:28:39.006Z,49.55
2023-02-19T10:30:45.269Z,49.34
2023-02-19T10:33:00.472Z,49.57
2023-02-19T10:35:08.621Z,48.83
2023-02-19T10:37:16.084Z,48.75
2023-02-19T10:39:22.529Z,48.31
2023-02-19T10:41:26.561Z,48.35
2023-02-19T10:43:34.099Z,47.90
2023-02-19T10:45:41.088Z,47.71
2023-02-19T10:47:49.421Z,47.67
2023-02-19T10:49:52.771Z,47.71
2023-02-19T10:51:56.791Z,47.20
2023-02-19T10:54:05.038Z,47.39
2023-02-19T10:56:10.549Z,46.86
2023-02-19T10:58:27.857Z,46.45
2023-02-19T11:00:30.899Z,45.86
2023-02-19T11:02:32.960Z,45.47
2023-02-19T11:04:37.466Z,45.44
2023-02-19T11:06:40.391Z,45.21
2023-02-19T11:08:47.329Z,44.69
2023-02-19T11:10:50.104Z,44.56
2023-02-19T11:12:54.961Z,44.79
2023-02-19T11:14:57.237Z,44.01
2023-02-19T11:17:01.620Z,44.06
2023-02-19T11:19:03.750Z,44.27
2023-02-19T11:21:07.568Z,44.44
2023-02-19T11:23:15.820Z,43.97
2023-02-19T11:25:21.115Z,43.58
2023-02-19T11:27:24.910Z,44.02
2023-02-19T11:29:29.108Z,43.57
2023-02-19T11:31:33.354Z,43.43
2023-02-19T11:33:35.698Z,42.74
2023-02-19T11:35:37.731Z,41.89
2023-02-19T11:37:56.944Z,42.30
2023-02-19T11:39:59.211Z,42.72
2023-02-19T11:42:05.739Z,42.78
2023-02-19T11:44:20.302Z,42.20
2023-02-19T11:46:26.844Z,41.55
2023-02-19T11:48:37.291Z,41.60
2023-02-19T11:50:44.687Z,40.25
2023-02-19T11:52:50.213Z,40.16
2023-02-19T11:54:58.061Z,40.10
2023-02-19T11:57:12.505Z,40.15
2023-02-19T11:59:25.580Z,39.96
2023-02-19T12:01:32.171Z,39.68
2023-02-19T12:03:37.758Z,39.38
2023-02-19T12:05:46.220Z,39.50
2023-02-19T12:07:51.618Z,39.71
2023-02-19T12:09:59.872Z,38.41
2023-02-19T12:12:15.978Z,38.99
2023-02-19T12:14:22.492Z,38.67
2023-02-19T12:16:32.514Z,38.90
2023-02-19T12:18:46.901Z,38.64
2023-02-19T12:20:55.158Z,39.13
2023-02-19T12:23:09.237Z,39.13
2023-02-19T12:25:25.731Z,39.29
2023-02-19T12:27:34.039Z,39.54
2023-02-19T12:29:40.469Z,40.08
2023-02-19T12:31:48.957Z,40.07
2023-02-19T12:33:57.368Z,40.22
2023-02-19T12:36:14.703Z,40.52
2023-02-19T12:38:25.396Z,40.08
2023-02-19T12:40:33.685Z,39.98
2023-02-19T12:42:41.879Z,40.42
2023-02-19T12:44:47.967Z,40.04
2023-02-19T12:46:56.933Z,40.34
2023-02-19T12:49:07.453Z,39.89
2023-02-19T12:51:15.625Z,40.12
2023-02-19T12:53:28.443Z,39.87
2023-02-19T12:55:38.701Z,40.24
2023-02-19T12:57:41.519Z,40.69
2023-02-19T12:59:53.572Z,40.78
2023-02-19T13:02:02.010Z,40.33
2023-02-19T13:04:10.372Z,40.21
2023-02-19T13:06:19.179Z,40.70
2023-02-19T13:08:23.017Z,41.22
2023-02-19T13:10:29.696Z,41.18
2023-02-19T13:12:38.454Z,41.26
2023-02-19T13:14:46.854Z,41.50
2023-02-19T13:16:57.952Z,41.98
2023-02-19T13:19:02.990Z,41.56
2023-02-19T13:21:06.442Z,41.88
2023-02-19T13:23:15.987Z,42.10
2023-02-19T13:25:19.544Z,41.93
2023-02-19T13:27:28.778Z,42.23
2023-02-19T13:29:34.336Z,42.11
2023-02-19T13:31:45.332Z,42.57
2023-02-19T13:33:53.755Z,42.06
2023-02-19T13:36:01.528Z,42.23
2023-02-19T13:40:20.838Z,42.15
2023-02-19T13:42:26.433Z,42.05
2023-02-19T13:44:31.132Z,42.10
2023-02-19T13:46:38.138Z,42.41
2023-02-19T13:48:42.072Z,42.73
2023-02-19T13:50:44.104Z,42.59
2023-02-19T13:52:46.064Z,42.78
2023-02-19T13:54:48.081Z,42.52
2023-02-19T13:56:50.707Z,42.79
2023-02-19T13:58:57.102Z,43.18
2023-02-19T14:01:05.823Z,43.53
2023-02-19T14:03:14.067Z,43.52
2023-02-19T14:05:39.333Z,43.23
2023-02-19T14:07:47.681Z,43.20
2023-02-19T14:09:50.060Z,43.95
2023-02-19T14:11:53.094Z,43.11
2023-02-19T14:13:59.523Z,43.00
2023-02-19T14:16:01.484Z,42.89
2023-02-19T14:18:03.501Z,43.16
2023-02-19T14:20:09.080Z,43.21
2023-02-19T14:22:17.245Z,42.87
2023-02-19T14:24:19.289Z,43.10
2023-02-19T14:26:25.003Z,43.03
2023-02-19T14:28:35.822Z,42.38
2023-02-19T14:30:40.803Z,42.17
2023-02-19T14:32:47.432Z,41.59
2023-02-19T14:34:53.273Z,42.02
2023-02-19T14:37:01.180Z,42.78
2023-02-19T14:39:09.393Z,42.72
2023-02-19T14:41:14.999Z,42.43
2023-02-19T14:43:21.238Z,42.29
2023-02-19T14:45:24.310Z,42.26
2023-02-19T14:47:30.956Z,42.38
2023-02-19T14:49:43.188Z,42.21
2023-02-19T14:51:51.486Z,41.81
2023-02-19T14:53:55.461Z,41.81
2023-02-19T14:55:59.769Z,42.39
2023-02-19T14:58:07.167Z,42.05
2023-02-19T15:00:18.392Z,41.94
2023-02-19T15:02:21.878Z,42.05
2023-02-19T15:04:27.219Z,41.65
2023-02-19T15:06:31.759Z,42.15
2023-02-19T15:08:38.302Z,41.44
2023-02-19T15:10:43.792Z,41.74
2023-02-19T15:12:51.497Z,41.94
2023-02-19T15:14:57.427Z,41.57
2023-02-19T15:17:03.177Z,41.05
2023-02-19T15:19:10.214Z,41.26
2023-02-19T15:21:23.606Z,41.06
2023-02-19T15:23:27.720Z,41.20
2023-02-19T15:25:35.019Z,40.66
2023-02-19T15:27:37.543Z,40.35
2023-02-19T15:29:45.749Z,39.98
2023-02-19T15:31:51.253Z,40.23
2023-02-19T15:33:55.973Z,40.40
2023-02-19T15:36:04.828Z,40.40
2023-02-19T15:38:12.770Z,39.98
2023-02-19T15:40:16.295Z,39.80
2023-02-19T15:42:24.494Z,39.82
2023-02-19T15:44:35.433Z,39.86
2023-02-19T15:46:38.603Z,40.14
2023-02-19T15:48:47.056Z,40.55
2023-02-19T15:50:55.270Z,40.40
2023-02-19T15:53:00.950Z,40.17
2023-02-19T15:55:11.372Z,40.55
2023-02-19T15:57:20.350Z,40.71
2023-02-19T15:59:33.164Z,41.26
2023-02-19T16:01:37.954Z,42.00
2023-02-19T16:03:40.314Z,42.47
2023-02-19T16:05:42.385Z,42.30
2023-02-19T16:07:44.465Z,42.40
2023-02-19T16:09:46.550Z,42.23
2023-02-19T16:11:55.413Z,42.64
2023-02-19T16:14:04.486Z,41.97
2023-02-19T16:16:10.051Z,42.31
2023-02-19T16:18:16.582Z,42.28
2023-02-19T16:20:24.293Z,42.17
2023-02-19T16:22:31.106Z,41.90
2023-02-19T16:24:37.497Z,42.19
2023-02-19T16:26:43.664Z,41.96
2023-02-19T16:28:51.844Z,42.00
2023-02-19T16:30:59.643Z,42.32
2023-02-19T16:33:07.926Z,41.90
2023-02-19T16:35:16.195Z,41.93
2023-02-19T16:37:24.464Z,42.31
2023-02-19T16:39:26.687Z,42.16
2023-02-19T16:41:29.055Z,42.65
2023-02-19T16:43:39.325Z,42.66
2023-02-19T16:45:42.368Z,42.68
2023-02-19T16:47:48.601Z,43.04
2023-02-19T16:49:50.708Z,42.71
2023-02-19T16:51:53.951Z,43.25
2023-02-19T16:53:56.004Z,43.00
2023-02-19T16:55:58.548Z,42.87
2023-02-19T16:58:01.716Z,43.62
2023-02-19T17:00:04.203Z,43.33
2023-02-19T17:02:09.270Z,43.49
2023-02-19T17:04:13.161Z,43.59
2023-02-19T17:06:16.147Z,43.67
2023-02-19T17:08:24.324Z,43.98
2023-02-19T17:10:28.153Z,43.69
2023-02-19T17:12:30.534Z,43.80
2023-02-19T17:14:32.457Z,43.94
2023-02-19T17:16:40.275Z,44.14
2023-02-19T17:18:42.675Z,44.05
2023-02-19T17:20:51.183Z,44.12
2023-02-19T17:22:54.348Z,44.50
2023-02-19T17:24:56.461Z,44.41
2023-02-19T17:26:58.430Z,44.66
2023-02-19T17:29:02.554Z,44.48
2023-02-19T17:31:05.110Z,45.02
2023-02-19T17:33:07.183Z,44.91
2023-02-19T17:35:09.254Z,45.05
2023-02-19T17:37:16.143Z,45.46
2023-02-19T17:39:18.313Z,45.61
2023-02-19T17:41:20.514Z,45.47
2023-02-19T17:43:25.500Z,45.86
2023-02-19T17:45:27.735Z,45.80
2023-02-19T17:47:32.142Z,45.85
2023-02-19T17:49:34.240Z,46.64
2023-02-19T17:51:36.261Z,46.02
2023-02-19T17:53:40.490Z,46.05
2023-02-19T17:55:42.611Z,46.14
2023-02-19T17:57:45.991Z,46.42
2023-02-19T17:59:48.174Z,46.79
2023-02-19T18:01:50.428Z,46.78
2023-02-19T18:03:52.621Z,47.14
2023-02-19T18:05:56.930Z,47.40
2023-02-19T18:07:59.204Z,47.25
2023-02-19T18:10:01.272Z,47.58
2023-02-19T18:12:03.478Z,47.85
2023-02-19T18:14:05.588Z,48.36
2023-02-19T18:16:10.102Z,49.00
2023-02-19T18:18:12.442Z,48.94
2023-02-19T18:20:18.062Z,49.16
2023-02-19T18:22:20.422Z,49.20
2023-02-19T18:24:22.445Z,49.14
2023-02-19T18:26:24.971Z,49.29
2023-02-19T18:28:29.914Z,49.71
2023-02-19T18:30:32.056Z,50.00
2023-02-19T18:32:34.391Z,49.98
2023-02-19T18:34:36.651Z,49.86
2023-02-19T18:36:38.884Z,50.19
2023-02-19T18:38:41.115Z,50.28
2023-02-19T18:40:43.446Z,50.19
2023-02-19T18:42:45.465Z,50.35
2023-02-19T18:44:49.296Z,50.75
2023-02-19T18:46:51.685Z,50.94
2023-02-19T18:48:53.656Z,51.22
2023-02-19T18:50:55.652Z,51.25
2023-02-19T18:52:57.741Z,51.67
2023-02-19T18:54:59.807Z,52.07
2023-02-19T18:57:03.790Z,51.88
2023-02-19T18:59:05.801Z,52.05
2023-02-19T19:01:08.005Z,51.99
2023-02-19T19:03:10.055Z,52.35
2023-02-19T19:05:14.259Z,52.67
2023-02-19T19:07:17.473Z,52.80
2023-02-19T19:09:19.668Z,52.85
2023-02-19T19:11:22.866Z,52.85
2023-02-19T19:13:25.726Z,52.80
2023-02-19T19:15:27.846Z,52.97
2023-02-19T19:17:29.879Z,53.38
2023-02-19T19:19:34.226Z,53.76
2023-02-19T19:21:36.217Z,53.56
2023-02-19T19:23:38.210Z,53.38
2023-02-19T19:25:40.228Z,53.91
2023-02-19T19:27:42.237Z,54.00
2023-02-19T19:29:45.256Z,53.85
2023-02-19T19:31:49.623Z,54.38
2023-02-19T19:33:51.976Z,54.66
2023-02-19T19:35:54.338Z,54.45
2023-02-19T19:37:56.360Z,54.82
2023-02-19T19:39:58.371Z,55.01
2023-02-19T19:42:00.627Z,55.01
2023-02-19T19:44:05.756Z,55.03
2023-02-19T19:46:08.889Z,55.04
2023-02-19T19:48:11.003Z,55.02
2023-02-19T19:50:14.572Z,55.17
2023-02-19T19:52:16.715Z,55.72
2023-02-19T19:54:18.861Z,55.55
2023-02-19T19:56:20.944Z,55.80
2023-02-19T19:58:24.977Z,56.04
2023-02-19T20:00:27.185Z,56.50
2023-02-19T20:02:29.395Z,56.78
2023-02-19T20:04:31.725Z,56.76
2023-02-19T20:06:33.724Z,56.74
2023-02-19T20:08:35.638Z,56.93
2023-02-19T20:10:37.773Z,56.97
2023-02-19T20:12:40.782Z,57.39
2023-02-19T20:14:46.115Z,57.27
2023-02-19T20:16:50.684Z,57.23
2023-02-19T20:18:52.709Z,57.84
2023-02-19T20:20:54.710Z,57.66
2023-02-19T20:22:57.027Z,58.07
2023-02-19T20:24:59.002Z,57.87
2023-02-19T20:27:02.222Z,58.02
2023-02-19T20:29:06.181Z,58.06
2023-02-19T20:31:08.601Z,57.90
2023-02-19T20:33:10.636Z,57.99
2023-02-19T20:35:16.187Z,57.99
2023-02-19T20:37:18.221Z,57.91
2023-02-19T20:39:21.750Z,58.03
2023-02-19T20:41:23.872Z,58.50
2023-02-19T20:43:27.284Z,57.92
2023-02-19T20:45:31.195Z,58.16
2023-02-19T20:47:33.312Z,58.65
2023-02-19T20:49:35.502Z,58.92
2023-02-19T20:51:43.652Z,59.13
2023-02-19T20:53:45.603Z,58.84
2023-02-19T20:55:47.702Z,59.20
2023-02-19T20:57:49.737Z,58.77
2023-02-19T20:59:51.775Z,58.85
2023-02-19T21:01:54.032Z,58.73
2023-02-19T21:03:56.130Z,58.57
2023-02-19T21:05:58.081Z,58.32
2023-02-19T21:08:00.144Z,58.71
2023-02-19T21:10:02.241Z,58.93
2023-02-19T21:12:05.465Z,58.98
2023-02-19T21:14:07.659Z,59.17
2023-02-19T21:16:10.138Z,59.02
2023-02-19T21:18:12.374Z,59.74
2023-02-19T21:20:15.369Z,59.08
2023-02-19T21:22:18.713Z,59.88
2023-02-19T21:24:20.744Z,60.04
2023-02-19T21:26:26.235Z,60.15
2023-02-19T21:28:28.179Z,60.54
2023-02-19T21:30:30.231Z,60.59
2023-02-19T21:32:32.283Z,60.38
2023-02-19T21:34:34.310Z,60.17
2023-02-19T21:36:37.112Z,60.80
2023-02-19T21:38:39.179Z,60.90
2023-02-19T21:40:41.264Z,60.37
2023-02-19T21:42:43.316Z,61.05
2023-02-19T21:44:45.254Z,60.65
2023-02-19T21:46:47.644Z,61.60
2023-02-19T21:48:51.666Z,61.22
2023-02-19T21:50:53.903Z,61.00
2023-02-19T21:52:55.955Z,60.77
2023-02-19T21:54:58.111Z,60.63
2023-02-19T21:57:03.289Z,60.81
2023-02-19T21:59:07.637Z,60.57
2023-02-19T22:01:09.629Z,61.64
2023-02-19T22:03:16.603Z,61.09
2023-02-19T22:05:18.673Z,61.25
2023-02-19T22:07:21.547Z,61.98
2023-02-19T22:09:23.672Z,61.15
2023-02-19T22:11:26.265Z,61.42
2023-02-19T22:13:28.146Z,61.24
2023-02-19T22:15:30.095Z,61.42
2023-02-19T22:17:34.367Z,61.65
2023-02-19T22:19:39.183Z,61.51
2023-02-19T22:21:44.297Z,61.93
2023-02-19T22:23:48.627Z,62.27
2023-02-19T22:25:51.657Z,62.15
2023-02-19T22:27:53.733Z,62.17
2023-02-19T22:29:55.889Z,62.36
2023-02-19T22:31:58.161Z,61.72
2023-02-19T22:34:00.166Z,62.24
2023-02-19T22:36:02.303Z,62.38
2023-02-19T22:38:04.301Z,62.67
2023-02-19T22:40:07.365Z,62.71
2023-02-19T22:42:09.372Z,62.87
2023-02-19T22:44:11.400Z,62.18
2023-02-19T22:46:18.826Z,62.88
2023-02-19T22:48:29.494Z,63.34
2023-02-19T22:50:32.296Z,62.86
2023-02-19T22:52:34.480Z,63.30
2023-02-19T22:54:37.385Z,62.84
2023-02-19T22:56:42.531Z,63.81
2023-02-19T22:58:44.551Z,63.58
2023-02-19T23:00:46.896Z,63.42
2023-02-19T23:02:49.727Z,62.93
2023-02-19T23:04:51.718Z,63.25
2023-02-19T23:06:55.917Z,62.63
2023-02-19T23:09:02.192Z,62.69
2023-02-19T23:11:04.283Z,62.70
2023-02-19T23:13:08.612Z,63.25
2023-02-19T23:15:11.635Z,63.13
2023-02-19T23:17:13.547Z,63.14
2023-02-19T23:19:16.315Z,63.10
2023-02-19T23:21:19.697Z,62.76
2023-02-19T23:23:21.593Z,63.08
2023-02-19T23:25:23.654Z,62.84
2023-02-19T23:27:26.794Z,62.22
2023-02-19T23:29:30.937Z,62.94
2023-02-19T23:31:33.020Z,63.02
2023-02-19T23:33:35.344Z,63.05
2023-02-19T23:35:37.248Z,62.52
2023-02-19T23:37:39.159Z,62.40
2023-02-19T23:39:41.090Z,62.81
2023-02-19T23:41:48.771Z,62.52
2023-02-19T23:43:53.076Z,62.77
2023-02-19T23:45:55.178Z,63.38
2023-02-19T23:47:59.315Z,62.82
2023-02-19T23:50:03.649Z,63.07
2023-02-19T23:52:05.904Z,63.43
2023-02-19T23:54:08.245Z,62.72
2023-02-19T23:56:10.441Z,63.31
2023-02-19T23:58:12.679Z,63.64
